Terminal Aerodrome Forecast
Issued by NWS

Home | Current Version | Previous Version | Text Only | Print | Product List | Glossary On
Versions: 1 2 3 4 5 6 7 8 9 10 11 12 13 14 15 16 17 18 19
000
FTUS42 KMHX 221100 CCA
TAFOAJ
TAF COR
KOAJ 221134Z 2212/2312 30005KT P6SM SCT100
      TEMPO 2212/2213 4SM BR
     FM221800 29005KT P6SM VCTS SCT050CB
     FM230600 00000KT 4SM BR BKN100
      AMD LTD TO CLD VIS AND WIND=

USA.gov is the U.S. government's official web portal to all federal, state and local government web resources and services.